sensor_id;sensor_type;location;lat;lon;timestamp;temperature;humidity
47779;DHT22;33538;48.432;11.350;2023-11-21T00:00:30;8.10;99.90
47779;DHT22;33538;48.432;11.350;2023-11-21T00:02:57;8.10;99.90
47779;DHT22;33538;48.432;11.350;2023-11-21T00:05:24;8.00;99.90
47779;DHT22;33538;48.432;11.350;2023-11-21T00:07:52;8.10;99.90
47779;DHT22;33538;48.432;11.350;2023-11-21T00:10:19;8.10;99.90
47779;DHT22;33538;48.432;11.350;2023-11-21T00:12:46;8.10;99.90
47779;DHT22;33538;48.432;11.350;2023-11-21T00:15:13;8.10;99.90
47779;DHT22;33538;48.432;11.350;2023-11-21T00:17:39;8.10;99.90
47779;DHT22;33538;48.432;11.350;2023-11-21T00:20:07;8.10;99.90
47779;DHT22;33538;48.432;11.350;2023-11-21T00:22:34;8.10;99.90
47779;DHT22;33538;48.432;11.350;2023-11-21T00:25:04;8.10;99.90
47779;DHT22;33538;48.432;11.350;2023-11-21T00:27:31;8.10;99.90
47779;DHT22;33538;48.432;11.350;2023-11-21T00:29:57;8.10;99.90
47779;DHT22;33538;48.432;11.350;2023-11-21T00:32:24;8.10;99.90
47779;DHT22;33538;48.432;11.350;2023-11-21T00:34:51;8.10;99.90
47779;DHT22;33538;48.432;11.350;2023-11-21T00:37:18;8.10;99.90
47779;DHT22;33538;48.432;11.350;2023-11-21T00:39:45;8.00;99.90
47779;DHT22;33538;48.432;11.350;2023-11-21T00:42:13;8.00;99.90
47779;DHT22;33538;48.432;11.350;2023-11-21T00:44:40;8.00;99.90
47779;DHT22;33538;48.432;11.350;2023-11-21T00:47:06;8.00;99.90
47779;DHT22;33538;48.432;11.350;2023-11-21T00:49:33;8.00;99.90
47779;DHT22;33538;48.432;11.350;2023-11-21T00:52:00;8.00;99.90
47779;DHT22;33538;48.432;11.350;2023-11-21T00:54:27;8.00;99.90
47779;DHT22;33538;48.432;11.350;2023-11-21T00:56:54;8.00;99.90
47779;DHT22;33538;48.432;11.350;2023-11-21T00:59:22;8.00;99.90
47779;DHT22;33538;48.432;11.350;2023-11-21T01:01:49;8.00;99.90
47779;DHT22;33538;48.432;11.350;2023-11-21T01:04:16;8.00;99.90
47779;DHT22;33538;48.432;11.350;2023-11-21T01:06:43;8.00;99.90
47779;DHT22;33538;48.432;11.350;2023-11-21T01:09:09;8.00;99.90
47779;DHT22;33538;48.432;11.350;2023-11-21T01:11:37;8.10;99.90
47779;DHT22;33538;48.432;11.350;2023-11-21T01:14:04;8.10;99.90
47779;DHT22;33538;48.432;11.350;2023-11-21T01:16:32;8.10;99.90
47779;DHT22;33538;48.432;11.350;2023-11-21T01:18:59;8.10;99.90
47779;DHT22;33538;48.432;11.350;2023-11-21T01:21:26;8.10;99.90
47779;DHT22;33538;48.432;11.350;2023-11-21T01:23:53;8.10;99.90
47779;DHT22;33538;48.432;11.350;2023-11-21T01:26:20;8.10;99.90
47779;DHT22;33538;48.432;11.350;2023-11-21T01:28:46;8.10;99.90
47779;DHT22;33538;48.432;11.350;2023-11-21T01:31:13;8.10;99.90
47779;DHT22;33538;48.432;11.350;2023-11-21T01:33:42;8.10;99.90
47779;DHT22;33538;48.432;11.350;2023-11-21T01:36:09;8.10;99.90
47779;DHT22;33538;48.432;11.350;2023-11-21T01:38:36;8.10;99.90
47779;DHT22;33538;48.432;11.350;2023-11-21T01:41:03;8.10;99.90
47779;DHT22;33538;48.432;11.350;2023-11-21T01:43:30;8.10;99.90
47779;DHT22;33538;48.432;11.350;2023-11-21T01:45:57;8.10;99.90
47779;DHT22;33538;48.432;11.350;2023-11-21T01:48:24;8.10;99.90
47779;DHT22;33538;48.432;11.350;2023-11-21T01:50:53;8.10;99.90
47779;DHT22;33538;48.432;11.350;2023-11-21T01:53:20;8.10;99.90
47779;DHT22;33538;48.432;11.350;2023-11-21T01:55:47;8.10;99.90
47779;DHT22;33538;48.432;11.350;2023-11-21T01:58:14;8.10;99.90
47779;DHT22;33538;48.432;11.350;2023-11-21T02:00:41;8.10;99.90
47779;DHT22;33538;48.432;11.350;2023-11-21T02:03:07;8.20;99.90
47779;DHT22;33538;48.432;11.350;2023-11-21T02:05:34;8.20;99.90
47779;DHT22;33538;48.432;11.350;2023-11-21T02:08:03;8.20;99.90
47779;DHT22;33538;48.432;11.350;2023-11-21T02:10:30;8.20;99.90
47779;DHT22;33538;48.432;11.350;2023-11-21T02:12:58;8.20;99.90
47779;DHT22;33538;48.432;11.350;2023-11-21T02:15:25;8.20;99.90
47779;DHT22;33538;48.432;11.350;2023-11-21T02:17:52;8.20;99.90
47779;DHT22;33538;48.432;11.350;2023-11-21T02:20:20;8.20;99.90
47779;DHT22;33538;48.432;11.350;2023-11-21T02:22:52;8.20;99.90
47779;DHT22;33538;48.432;11.350;2023-11-21T02:25:19;8.20;99.90
47779;DHT22;33538;48.432;11.350;2023-11-21T02:27:46;8.10;99.90
47779;DHT22;33538;48.432;11.350;2023-11-21T02:30:13;8.10;99.90
47779;DHT22;33538;48.432;11.350;2023-11-21T02:32:40;8.10;99.90
47779;DHT22;33538;48.432;11.350;2023-11-21T02:35:15;8.10;99.90
47779;DHT22;33538;48.432;11.350;2023-11-21T02:37:42;8.10;99.90
47779;DHT22;33538;48.432;11.350;2023-11-21T02:40:11;8.10;99.90
47779;DHT22;33538;48.432;11.350;2023-11-21T02:42:39;8.10;99.90
47779;DHT22;33538;48.432;11.350;2023-11-21T02:45:06;8.10;99.90
47779;DHT22;33538;48.432;11.350;2023-11-21T02:47:33;8.10;99.90
47779;DHT22;33538;48.432;11.350;2023-11-21T02:50:00;8.10;99.90
47779;DHT22;33538;48.432;11.350;2023-11-21T02:52:27;8.10;99.90
47779;DHT22;33538;48.432;11.350;2023-11-21T02:54:54;8.10;99.90
47779;DHT22;33538;48.432;11.350;2023-11-21T02:57:22;8.10;99.90
47779;DHT22;33538;48.432;11.350;2023-11-21T02:59:49;8.10;99.90
47779;DHT22;33538;48.432;11.350;2023-11-21T03:02:15;8.10;99.90
47779;DHT22;33538;48.432;11.350;2023-11-21T03:04:42;8.10;99.90
47779;DHT22;33538;48.432;11.350;2023-11-21T03:07:10;8.10;99.90
47779;DHT22;33538;48.432;11.350;2023-11-21T03:09:36;8.10;99.90
47779;DHT22;33538;48.432;11.350;2023-11-21T03:12:04;8.00;99.90
47779;DHT22;33538;48.432;11.350;2023-11-21T03:14:32;8.10;99.90
47779;DHT22;33538;48.432;11.350;2023-11-21T03:16:59;8.10;99.90
47779;DHT22;33538;48.432;11.350;2023-11-21T03:19:26;8.00;99.90
47779;DHT22;33538;48.432;11.350;2023-11-21T03:21:53;8.00;99.90
47779;DHT22;33538;48.432;11.350;2023-11-21T03:24:19;8.00;99.90
47779;DHT22;33538;48.432;11.350;2023-11-21T03:26:46;8.00;99.90
47779;DHT22;33538;48.432;11.350;2023-11-21T03:29:13;8.00;99.90
47779;DHT22;33538;48.432;11.350;2023-11-21T03:31:41;8.00;99.90
47779;DHT22;33538;48.432;11.350;2023-11-21T03:34:23;8.00;99.90
47779;DHT22;33538;48.432;11.350;2023-11-21T03:36:50;8.00;99.90
47779;DHT22;33538;48.432;11.350;2023-11-21T03:39:17;7.90;99.90
47779;DHT22;33538;48.432;11.350;2023-11-21T03:41:44;7.90;99.90
47779;DHT22;33538;48.432;11.350;2023-11-21T03:44:10;7.90;99.90
47779;DHT22;33538;48.432;11.350;2023-11-21T03:46:37;7.90;99.90
47779;DHT22;33538;48.432;11.350;2023-11-21T03:49:05;7.90;99.90
47779;DHT22;33538;48.432;11.350;2023-11-21T03:51:33;7.80;99.90
47779;DHT22;33538;48.432;11.350;2023-11-21T03:54:00;7.80;99.90
47779;DHT22;33538;48.432;11.350;2023-11-21T03:56:26;7.80;99.90
47779;DHT22;33538;48.432;11.350;2023-11-21T03:58:53;7.90;99.90
47779;DHT22;33538;48.432;11.350;2023-11-21T04:01:21;7.80;99.90
47779;DHT22;33538;48.432;11.350;2023-11-21T04:03:48;7.90;99.90
47779;DHT22;33538;48.432;11.350;2023-11-21T04:06:17;7.80;99.90
47779;DHT22;33538;48.432;11.350;2023-11-21T04:08:44;7.80;99.90
47779;DHT22;33538;48.432;11.350;2023-11-21T04:11:11;7.80;99.90
47779;DHT22;33538;48.432;11.350;2023-11-21T04:13:37;7.80;99.90
47779;DHT22;33538;48.432;11.350;2023-11-21T04:16:05;7.80;99.90
47779;DHT22;33538;48.432;11.350;2023-11-21T04:18:32;7.80;99.90
47779;DHT22;33538;48.432;11.350;2023-11-21T04:20:59;7.80;99.90
47779;DHT22;33538;48.432;11.350;2023-11-21T04:23:28;7.80;99.90
47779;DHT22;33538;48.432;11.350;2023-11-21T04:25:55;7.80;99.90
47779;DHT22;33538;48.432;11.350;2023-11-21T04:28:22;7.80;99.90
47779;DHT22;33538;48.432;11.350;2023-11-21T04:30:49;7.80;99.90
47779;DHT22;33538;48.432;11.350;2023-11-21T04:33:16;7.80;99.90
47779;DHT22;33538;48.432;11.350;2023-11-21T04:35:43;7.80;99.90
47779;DHT22;33538;48.432;11.350;2023-11-21T04:38:10;7.80;99.90
47779;DHT22;33538;48.432;11.350;2023-11-21T04:40:38;7.80;99.90
47779;DHT22;33538;48.432;11.350;2023-11-21T04:43:05;7.80;99.90
47779;DHT22;33538;48.432;11.350;2023-11-21T04:45:32;7.80;99.90
47779;DHT22;33538;48.432;11.350;2023-11-21T04:47:59;7.90;99.90
47779;DHT22;33538;48.432;11.350;2023-11-21T04:50:26;7.80;99.90
47779;DHT22;33538;48.432;11.350;2023-11-21T04:52:52;7.80;99.90
47779;DHT22;33538;48.432;11.350;2023-11-21T04:55:19;7.80;99.90
47779;DHT22;33538;48.432;11.350;2023-11-21T04:57:48;7.80;99.90
47779;DHT22;33538;48.432;11.350;2023-11-21T05:00:15;7.80;99.90
47779;DHT22;33538;48.432;11.350;2023-11-21T05:02:42;7.90;99.90
47779;DHT22;33538;48.432;11.350;2023-11-21T05:05:09;7.80;99.90
47779;DHT22;33538;48.432;11.350;2023-11-21T05:07:36;7.80;99.90
47779;DHT22;33538;48.432;11.350;2023-11-21T05:10:04;7.80;99.90
47779;DHT22;33538;48.432;11.350;2023-11-21T05:12:31;7.80;99.90
47779;DHT22;33538;48.432;11.350;2023-11-21T05:14:59;7.80;99.90
47779;DHT22;33538;48.432;11.350;2023-11-21T05:17:26;7.80;99.90
47779;DHT22;33538;48.432;11.350;2023-11-21T05:19:53;7.80;99.90
47779;DHT22;33538;48.432;11.350;2023-11-21T05:22:20;7.80;99.90
47779;DHT22;33538;48.432;11.350;2023-11-21T05:24:47;7.80;99.90
47779;DHT22;33538;48.432;11.350;2023-11-21T05:27:14;7.70;99.90
47779;DHT22;33538;48.432;11.350;2023-11-21T05:29:40;7.70;99.90
47779;DHT22;33538;48.432;11.350;2023-11-21T05:32:08;7.70;99.90
47779;DHT22;33538;48.432;11.350;2023-11-21T05:34:35;7.70;99.90
47779;DHT22;33538;48.432;11.350;2023-11-21T05:37:02;7.70;99.90
47779;DHT22;33538;48.432;11.350;2023-11-21T05:39:29;7.70;99.90
47779;DHT22;33538;48.432;11.350;2023-11-21T05:41:56;7.70;99.90
47779;DHT22;33538;48.432;11.350;2023-11-21T05:44:23;7.70;99.90
47779;DHT22;33538;48.432;11.350;2023-11-21T05:46:49;7.70;99.90
47779;DHT22;33538;48.432;11.350;2023-11-21T05:49:18;7.70;99.90
47779;DHT22;33538;48.432;11.350;2023-11-21T05:51:44;7.70;99.90
47779;DHT22;33538;48.432;11.350;2023-11-21T05:54:11;7.70;99.90
47779;DHT22;33538;48.432;11.350;2023-11-21T05:56:38;7.60;99.90
47779;DHT22;33538;48.432;11.350;2023-11-21T05:59:05;7.60;99.90
47779;DHT22;33538;48.432;11.350;2023-11-21T06:01:32;7.60;99.90
47779;DHT22;33538;48.432;11.350;2023-11-21T06:03:58;7.60;99.90
47779;DHT22;33538;48.432;11.350;2023-11-21T06:06:27;7.50;99.90
47779;DHT22;33538;48.432;11.350;2023-11-21T06:08:54;7.50;99.90
47779;DHT22;33538;48.432;11.350;2023-11-21T06:11:21;7.50;99.90
47779;DHT22;33538;48.432;11.350;2023-11-21T06:13:47;7.50;99.90
47779;DHT22;33538;48.432;11.350;2023-11-21T06:16:14;7.40;99.90
47779;DHT22;33538;48.432;11.350;2023-11-21T06:18:41;7.40;99.90
47779;DHT22;33538;48.432;11.350;2023-11-21T06:21:09;7.40;99.90
47779;DHT22;33538;48.432;11.350;2023-11-21T06:23:37;7.40;99.90
47779;DHT22;33538;48.432;11.350;2023-11-21T06:26:04;7.40;99.90
47779;DHT22;33538;48.432;11.350;2023-11-21T06:28:31;7.40;99.90
47779;DHT22;33538;48.432;11.350;2023-11-21T06:30:58;7.40;99.90
47779;DHT22;33538;48.432;11.350;2023-11-21T06:33:25;7.40;99.90
47779;DHT22;33538;48.432;11.350;2023-11-21T06:35:52;7.40;99.90
47779;DHT22;33538;48.432;11.350;2023-11-21T06:38:19;7.50;99.90
47779;DHT22;33538;48.432;11.350;2023-11-21T06:40:47;7.50;99.90
47779;DHT22;33538;48.432;11.350;2023-11-21T06:43:14;7.40;99.90
47779;DHT22;33538;48.432;11.350;2023-11-21T06:45:41;7.40;99.90
47779;DHT22;33538;48.432;11.350;2023-11-21T06:48:08;7.40;99.90
47779;DHT22;33538;48.432;11.350;2023-11-21T06:50:35;7.40;99.90
47779;DHT22;33538;48.432;11.350;2023-11-21T06:53:02;7.40;99.90
47779;DHT22;33538;48.432;11.350;2023-11-21T06:55:28;7.40;99.90
47779;DHT22;33538;48.432;11.350;2023-11-21T06:57:57;7.40;99.90
47779;DHT22;33538;48.432;11.350;2023-11-21T07:00:23;7.30;99.90
47779;DHT22;33538;48.432;11.350;2023-11-21T07:02:50;7.30;99.90
47779;DHT22;33538;48.432;11.350;2023-11-21T07:05:17;7.30;99.90
47779;DHT22;33538;48.432;11.350;2023-11-21T07:07:44;7.30;99.90
47779;DHT22;33538;48.432;11.350;2023-11-21T07:10:11;7.30;99.90
47779;DHT22;33538;48.432;11.350;2023-11-21T07:12:38;7.30;99.90
47779;DHT22;33538;48.432;11.350;2023-11-21T07:15:07;7.40;99.90
47779;DHT22;33538;48.432;11.350;2023-11-21T07:17:34;7.40;99.90
47779;DHT22;33538;48.432;11.350;2023-11-21T07:20:04;7.30;99.90
47779;DHT22;33538;48.432;11.350;2023-11-21T07:22:31;7.40;99.90
47779;DHT22;33538;48.432;11.350;2023-11-21T07:24:58;7.40;99.90
47779;DHT22;33538;48.432;11.350;2023-11-21T07:27:25;7.30;99.90
47779;DHT22;33538;48.432;11.350;2023-11-21T07:29:52;7.40;99.90
47779;DHT22;33538;48.432;11.350;2023-11-21T07:32:20;7.40;99.90
47779;DHT22;33538;48.432;11.350;2023-11-21T07:34:47;7.40;99.90
47779;DHT22;33538;48.432;11.350;2023-11-21T07:37:14;7.40;99.90
47779;DHT22;33538;48.432;11.350;2023-11-21T07:39:41;7.50;99.90
47779;DHT22;33538;48.432;11.350;2023-11-21T07:42:09;7.50;99.90
47779;DHT22;33538;48.432;11.350;2023-11-21T07:44:35;7.50;99.90
47779;DHT22;33538;48.432;11.350;2023-11-21T07:47:03;7.50;99.90
47779;DHT22;33538;48.432;11.350;2023-11-21T07:49:31;7.50;99.90
47779;DHT22;33538;48.432;11.350;2023-11-21T07:51:58;7.50;99.90
47779;DHT22;33538;48.432;11.350;2023-11-21T07:54:25;7.50;99.90
47779;DHT22;33538;48.432;11.350;2023-11-21T07:56:51;7.50;99.90
47779;DHT22;33538;48.432;11.350;2023-11-21T07:59:18;7.50;99.90
47779;DHT22;33538;48.432;11.350;2023-11-21T08:01:45;7.60;99.90
47779;DHT22;33538;48.432;11.350;2023-11-21T08:04:12;7.60;99.90
47779;DHT22;33538;48.432;11.350;2023-11-21T08:06:40;7.60;99.90
47779;DHT22;33538;48.432;11.350;2023-11-21T08:09:07;7.60;99.90
47779;DHT22;33538;48.432;11.350;2023-11-21T08:11:34;7.60;99.90
47779;DHT22;33538;48.432;11.350;2023-11-21T08:14:00;7.60;99.90
47779;DHT22;33538;48.432;11.350;2023-11-21T08:16:27;7.60;99.90
47779;DHT22;33538;48.432;11.350;2023-11-21T08:18:54;7.60;99.90
47779;DHT22;33538;48.432;11.350;2023-11-21T08:21:21;7.60;99.90
47779;DHT22;33538;48.432;11.350;2023-11-21T08:23:49;7.60;99.90
47779;DHT22;33538;48.432;11.350;2023-11-21T08:26:16;7.70;99.90
47779;DHT22;33538;48.432;11.350;2023-11-21T08:28:43;7.60;99.90
47779;DHT22;33538;48.432;11.350;2023-11-21T08:31:10;7.70;99.90
47779;DHT22;33538;48.432;11.350;2023-11-21T08:33:39;7.70;99.90
47779;DHT22;33538;48.432;11.350;2023-11-21T08:36:07;7.70;99.90
47779;DHT22;33538;48.432;11.350;2023-11-21T08:38:35;7.70;99.90
47779;DHT22;33538;48.432;11.350;2023-11-21T08:41:05;7.70;99.90
47779;DHT22;33538;48.432;11.350;2023-11-21T08:43:31;7.80;99.90
47779;DHT22;33538;48.432;11.350;2023-11-21T08:45:58;7.80;99.90
47779;DHT22;33538;48.432;11.350;2023-11-21T08:48:25;7.80;99.90
47779;DHT22;33538;48.432;11.350;2023-11-21T08:50:52;7.80;99.90
47779;DHT22;33538;48.432;11.350;2023-11-21T08:53:19;7.80;99.90
47779;DHT22;33538;48.432;11.350;2023-11-21T08:55:45;7.80;99.90
47779;DHT22;33538;48.432;11.350;2023-11-21T08:58:14;7.80;99.90
47779;DHT22;33538;48.432;11.350;2023-11-21T09:00:40;7.80;99.90
47779;DHT22;33538;48.432;11.350;2023-11-21T09:03:07;7.90;99.90
47779;DHT22;33538;48.432;11.350;2023-11-21T09:05:37;7.90;99.90
47779;DHT22;33538;48.432;11.350;2023-11-21T09:08:04;7.90;99.90
47779;DHT22;33538;48.432;11.350;2023-11-21T09:10:31;7.90;99.90
47779;DHT22;33538;48.432;11.350;2023-11-21T09:12:58;7.90;99.90
47779;DHT22;33538;48.432;11.350;2023-11-21T09:15:26;7.90;99.90
47779;DHT22;33538;48.432;11.350;2023-11-21T09:17:53;8.00;99.90
47779;DHT22;33538;48.432;11.350;2023-11-21T09:20:20;8.00;99.90
47779;DHT22;33538;48.432;11.350;2023-11-21T09:22:46;8.00;99.90
47779;DHT22;33538;48.432;11.350;2023-11-21T09:25:13;8.00;99.90
47779;DHT22;33538;48.432;11.350;2023-11-21T09:27:40;8.00;99.90
47779;DHT22;33538;48.432;11.350;2023-11-21T09:30:08;8.00;99.90
47779;DHT22;33538;48.432;11.350;2023-11-21T09:32:37;8.00;99.90
47779;DHT22;33538;48.432;11.350;2023-11-21T09:35:05;8.10;99.90
47779;DHT22;33538;48.432;11.350;2023-11-21T09:37:32;8.10;99.90
47779;DHT22;33538;48.432;11.350;2023-11-21T09:39:59;8.10;99.90
47779;DHT22;33538;48.432;11.350;2023-11-21T09:42:32;8.10;99.90
47779;DHT22;33538;48.432;11.350;2023-11-21T09:45:05;8.20;99.90
47779;DHT22;33538;48.432;11.350;2023-11-21T09:47:38;8.20;99.90
47779;DHT22;33538;48.432;11.350;2023-11-21T09:50:06;8.20;99.90
47779;DHT22;33538;48.432;11.350;2023-11-21T09:52:39;8.20;99.90
47779;DHT22;33538;48.432;11.350;2023-11-21T09:55:11;8.20;99.90
47779;DHT22;33538;48.432;11.350;2023-11-21T09:57:37;8.30;99.90
47779;DHT22;33538;48.432;11.350;2023-11-21T10:00:05;8.30;99.90
47779;DHT22;33538;48.432;11.350;2023-11-21T10:02:33;8.30;99.90
47779;DHT22;33538;48.432;11.350;2023-11-21T10:05:02;8.30;99.90
47779;DHT22;33538;48.432;11.350;2023-11-21T10:07:31;8.30;99.90
47779;DHT22;33538;48.432;11.350;2023-11-21T10:09:59;8.30;99.90
47779;DHT22;33538;48.432;11.350;2023-11-21T10:12:28;8.30;99.90
47779;DHT22;33538;48.432;11.350;2023-11-21T10:14:58;8.30;99.90
47779;DHT22;33538;48.432;11.350;2023-11-21T10:17:27;8.30;99.90
47779;DHT22;33538;48.432;11.350;2023-11-21T10:19:55;8.30;99.90
47779;DHT22;33538;48.432;11.350;2023-11-21T10:22:24;8.30;99.90
47779;DHT22;33538;48.432;11.350;2023-11-21T10:24:53;8.40;99.90
47779;DHT22;33538;48.432;11.350;2023-11-21T10:27:20;8.40;99.90
47779;DHT22;33538;48.432;11.350;2023-11-21T10:29:47;8.40;99.90
47779;DHT22;33538;48.432;11.350;2023-11-21T10:32:14;8.40;99.90
47779;DHT22;33538;48.432;11.350;2023-11-21T10:34:41;8.40;99.90
47779;DHT22;33538;48.432;11.350;2023-11-21T10:37:11;8.40;99.90
47779;DHT22;33538;48.432;11.350;2023-11-21T10:39:40;8.40;99.90
47779;DHT22;33538;48.432;11.350;2023-11-21T10:42:08;8.40;99.90
47779;DHT22;33538;48.432;11.350;2023-11-21T10:44:35;8.40;99.90
47779;DHT22;33538;48.432;11.350;2023-11-21T10:47:02;8.40;99.90
47779;DHT22;33538;48.432;11.350;2023-11-21T10:49:30;8.50;99.90
47779;DHT22;33538;48.432;11.350;2023-11-21T10:51:57;8.40;99.90
47779;DHT22;33538;48.432;11.350;2023-11-21T10:54:24;8.50;99.90
47779;DHT22;33538;48.432;11.350;2023-11-21T10:56:57;8.50;99.90
47779;DHT22;33538;48.432;11.350;2023-11-21T10:59:24;8.40;99.90
47779;DHT22;33538;48.432;11.350;2023-11-21T11:01:52;8.40;99.90
47779;DHT22;33538;48.432;11.350;2023-11-21T11:04:19;8.40;99.90
47779;DHT22;33538;48.432;11.350;2023-11-21T11:06:51;8.40;99.90
47779;DHT22;33538;48.432;11.350;2023-11-21T11:09:18;8.50;99.90
47779;DHT22;33538;48.432;11.350;2023-11-21T11:11:45;8.50;99.90
47779;DHT22;33538;48.432;11.350;2023-11-21T11:14:14;8.50;99.90
47779;DHT22;33538;48.432;11.350;2023-11-21T11:16:41;8.50;99.90
47779;DHT22;33538;48.432;11.350;2023-11-21T11:19:08;8.50;99.90
47779;DHT22;33538;48.432;11.350;2023-11-21T11:21:44;8.50;99.90
47779;DHT22;33538;48.432;11.350;2023-11-21T11:24:22;8.50;99.90
47779;DHT22;33538;48.432;11.350;2023-11-21T11:27:00;8.50;99.90
47779;DHT22;33538;48.432;11.350;2023-11-21T11:29:35;8.50;99.90
47779;DHT22;33538;48.432;11.350;2023-11-21T11:32:10;8.50;99.90
47779;DHT22;33538;48.432;11.350;2023-11-21T11:34:44;8.50;99.90
47779;DHT22;33538;48.432;11.350;2023-11-21T11:37:12;8.50;99.90
47779;DHT22;33538;48.432;11.350;2023-11-21T11:39:41;8.50;99.90
47779;DHT22;33538;48.432;11.350;2023-11-21T11:42:11;8.60;99.90
47779;DHT22;33538;48.432;11.350;2023-11-21T11:44:53;8.60;99.90
47779;DHT22;33538;48.432;11.350;2023-11-21T11:47:22;8.60;99.90
47779;DHT22;33538;48.432;11.350;2023-11-21T11:49:57;8.60;99.90
47779;DHT22;33538;48.432;11.350;2023-11-21T11:52:38;8.60;99.90
47779;DHT22;33538;48.432;11.350;2023-11-21T11:55:07;8.60;99.90
47779;DHT22;33538;48.432;11.350;2023-11-21T11:57:35;8.60;99.90
47779;DHT22;33538;48.432;11.350;2023-11-21T12:00:14;8.60;99.90
47779;DHT22;33538;48.432;11.350;2023-11-21T12:02:41;8.60;99.90
47779;DHT22;33538;48.432;11.350;2023-11-21T12:05:09;8.60;99.90
47779;DHT22;33538;48.432;11.350;2023-11-21T12:07:43;8.60;99.90
47779;DHT22;33538;48.432;11.350;2023-11-21T12:10:12;8.60;99.90
47779;DHT22;33538;48.432;11.350;2023-11-21T12:12:42;8.60;99.90
47779;DHT22;33538;48.432;11.350;2023-11-21T12:15:10;8.60;99.90
47779;DHT22;33538;48.432;11.350;2023-11-21T12:17:39;8.60;99.90
47779;DHT22;33538;48.432;11.350;2023-11-21T12:20:06;8.60;99.90
47779;DHT22;33538;48.432;11.350;2023-11-21T12:22:33;8.60;99.90
47779;DHT22;33538;48.432;11.350;2023-11-21T12:25:00;8.60;99.90
47779;DHT22;33538;48.432;11.350;2023-11-21T12:27:27;8.60;99.90
47779;DHT22;33538;48.432;11.350;2023-11-21T12:29:54;8.60;99.90
47779;DHT22;33538;48.432;11.350;2023-11-21T12:32:22;8.60;99.90
47779;DHT22;33538;48.432;11.350;2023-11-21T12:34:50;8.60;99.90
47779;DHT22;33538;48.432;11.350;2023-11-21T12:37:17;8.70;99.90
47779;DHT22;33538;48.432;11.350;2023-11-21T12:39:44;8.60;99.90
47779;DHT22;33538;48.432;11.350;2023-11-21T12:42:11;8.70;99.90
47779;DHT22;33538;48.432;11.350;2023-11-21T12:44:39;8.70;99.90
47779;DHT22;33538;48.432;11.350;2023-11-21T12:47:05;8.70;99.90
47779;DHT22;33538;48.432;11.350;2023-11-21T12:49:32;8.70;99.90
47779;DHT22;33538;48.432;11.350;2023-11-21T12:52:01;8.70;99.90
47779;DHT22;33538;48.432;11.350;2023-11-21T12:54:28;8.60;99.90
47779;DHT22;33538;48.432;11.350;2023-11-21T12:56:59;8.60;99.90
47779;DHT22;33538;48.432;11.350;2023-11-21T12:59:26;8.60;99.90
47779;DHT22;33538;48.432;11.350;2023-11-21T13:01:54;8.60;99.90
47779;DHT22;33538;48.432;11.350;2023-11-21T13:04:29;8.60;99.90
47779;DHT22;33538;48.432;11.350;2023-11-21T13:07:04;8.60;99.90
47779;DHT22;33538;48.432;11.350;2023-11-21T13:09:31;8.60;99.90
47779;DHT22;33538;48.432;11.350;2023-11-21T13:12:00;8.60;99.90
47779;DHT22;33538;48.432;11.350;2023-11-21T13:14:29;8.60;99.90
47779;DHT22;33538;48.432;11.350;2023-11-21T13:16:56;8.60;99.90
47779;DHT22;33538;48.432;11.350;2023-11-21T13:19:23;8.60;99.90
47779;DHT22;33538;48.432;11.350;2023-11-21T13:21:50;8.60;99.90
47779;DHT22;33538;48.432;11.350;2023-11-21T13:24:18;8.60;99.90
47779;DHT22;33538;48.432;11.350;2023-11-21T13:26:45;8.60;99.90
47779;DHT22;33538;48.432;11.350;2023-11-21T13:29:12;8.60;99.90
47779;DHT22;33538;48.432;11.350;2023-11-21T13:31:39;8.60;99.90
47779;DHT22;33538;48.432;11.350;2023-11-21T13:34:06;8.60;99.90
47779;DHT22;33538;48.432;11.350;2023-11-21T13:36:33;8.60;99.90
47779;DHT22;33538;48.432;11.350;2023-11-21T13:38:59;8.60;99.90
47779;DHT22;33538;48.432;11.350;2023-11-21T13:41:27;8.60;99.90
47779;DHT22;33538;48.432;11.350;2023-11-21T13:43:54;8.60;99.90
47779;DHT22;33538;48.432;11.350;2023-11-21T13:46:21;8.70;99.90
47779;DHT22;33538;48.432;11.350;2023-11-21T13:48:49;8.70;99.90
47779;DHT22;33538;48.432;11.350;2023-11-21T13:51:16;8.70;99.90
47779;DHT22;33538;48.432;11.350;2023-11-21T13:53:43;8.70;99.90
47779;DHT22;33538;48.432;11.350;2023-11-21T13:56:10;8.70;99.90
47779;DHT22;33538;48.432;11.350;2023-11-21T13:58:38;8.70;99.90
47779;DHT22;33538;48.432;11.350;2023-11-21T14:01:05;8.70;99.90
47779;DHT22;33538;48.432;11.350;2023-11-21T14:03:32;8.70;99.90
47779;DHT22;33538;48.432;11.350;2023-11-21T14:05:59;8.70;99.90
47779;DHT22;33538;48.432;11.350;2023-11-21T14:08:26;8.70;99.90
47779;DHT22;33538;48.432;11.350;2023-11-21T14:10:53;8.70;99.90
47779;DHT22;33538;48.432;11.350;2023-11-21T14:13:20;8.70;99.90
47779;DHT22;33538;48.432;11.350;2023-11-21T14:15:48;8.70;99.90
47779;DHT22;33538;48.432;11.350;2023-11-21T14:18:15;8.70;99.90
47779;DHT22;33538;48.432;11.350;2023-11-21T14:20:42;8.70;99.90
47779;DHT22;33538;48.432;11.350;2023-11-21T14:23:09;8.70;99.90
47779;DHT22;33538;48.432;11.350;2023-11-21T14:25:37;8.70;99.90
47779;DHT22;33538;48.432;11.350;2023-11-21T14:28:04;8.70;99.90
47779;DHT22;33538;48.432;11.350;2023-11-21T14:30:31;8.70;99.90
47779;DHT22;33538;48.432;11.350;2023-11-21T14:32:59;8.70;99.90
47779;DHT22;33538;48.432;11.350;2023-11-21T14:35:26;8.60;99.90
47779;DHT22;33538;48.432;11.350;2023-11-21T14:37:53;8.70;99.90
47779;DHT22;33538;48.432;11.350;2023-11-21T14:40:20;8.60;99.90
47779;DHT22;33538;48.432;11.350;2023-11-21T14:42:47;8.60;99.90
47779;DHT22;33538;48.432;11.350;2023-11-21T14:45:14;8.60;99.90
47779;DHT22;33538;48.432;11.350;2023-11-21T14:47:41;8.60;99.90
47779;DHT22;33538;48.432;11.350;2023-11-21T14:50:09;8.60;99.90
47779;DHT22;33538;48.432;11.350;2023-11-21T14:52:36;8.60;99.90
47779;DHT22;33538;48.432;11.350;2023-11-21T14:55:04;8.60;99.90
47779;DHT22;33538;48.432;11.350;2023-11-21T14:57:31;8.60;99.90
47779;DHT22;33538;48.432;11.350;2023-11-21T14:59:57;8.60;99.90
47779;DHT22;33538;48.432;11.350;2023-11-21T15:02:24;8.60;99.90
47779;DHT22;33538;48.432;11.350;2023-11-21T15:04:51;8.60;99.90
47779;DHT22;33538;48.432;11.350;2023-11-21T15:07:20;8.60;99.90
47779;DHT22;33538;48.432;11.350;2023-11-21T15:09:46;8.60;99.90
47779;DHT22;33538;48.432;11.350;2023-11-21T15:12:13;8.60;99.90
47779;DHT22;33538;48.432;11.350;2023-11-21T15:14:42;8.50;99.90
47779;DHT22;33538;48.432;11.350;2023-11-21T15:17:09;8.50;99.90
47779;DHT22;33538;48.432;11.350;2023-11-21T15:19:36;8.50;99.90
47779;DHT22;33538;48.432;11.350;2023-11-21T15:22:03;8.50;99.90
47779;DHT22;33538;48.432;11.350;2023-11-21T15:24:31;8.50;99.90
47779;DHT22;33538;48.432;11.350;2023-11-21T15:26:58;8.50;99.90
47779;DHT22;33538;48.432;11.350;2023-11-21T15:29:25;8.50;99.90
47779;DHT22;33538;48.432;11.350;2023-11-21T15:31:52;8.50;99.90